Time;durP1;ratioP1;P1;durP2;ratioP2;P2;SDS_P1;SDS_P2;PMS_P1;PMS_P2;Temp;Humidity;BMP_temperature;BMP_pressure;BME280_temperature;BME280_humidity;BME280_pressure;Samples;Min_cycle;Max_cycle;Signal;HPM_P1;HPM_P2
2022/12/16 00:02:23;;;;;;;30.08;15.32;;;;;;;;;;5981259;23;20561;-81
2022/12/16 00:04:49;;;;;;;38.28;16.33;;;;;;;;;;5982919;23;20019;-82
2022/12/16 00:07:17;;;;;;;35.40;16.83;;;;;;;;;;5981651;23;20026;-82
2022/12/16 00:09:42;;;;;;;31.70;14.90;;;;;;;;;;5983486;23;20440;-82
2022/12/16 00:12:07;;;;;;;33.25;16.02;;;;;;;;;;6005354;23;20012;-82
2022/12/16 00:14:33;;;;;;;31.67;16.25;;;;;;;;;;5982461;23;20432;-83
2022/12/16 00:16:58;;;;;;;33.00;15.18;;;;;;;;;;5980839;23;20083;-82
2022/12/16 00:19:24;;;;;;;33.17;15.57;;;;;;;;;;6005885;23;20043;-82
2022/12/16 00:21:49;;;;;;;33.78;16.40;;;;;;;;;;5981272;23;20023;-81
2022/12/16 00:24:15;;;;;;;36.55;17.05;;;;;;;;;;5982033;23;20046;-81
2022/12/16 00:26:40;;;;;;;33.60;16.08;;;;;;;;;;6005293;23;20352;-82
2022/12/16 00:29:05;;;;;;;33.58;15.43;;;;;;;;;;6005422;23;20075;-81
2022/12/16 00:31:31;;;;;;;36.38;16.10;;;;;;;;;;6004347;23;20022;-81
2022/12/16 00:33:57;;;;;;;30.90;15.93;;;;;;;;;;6005913;23;20479;-82
2022/12/16 00:36:22;;;;;;;33.50;16.40;;;;;;;;;;5982057;23;20053;-82
2022/12/16 00:38:50;;;;;;;33.97;17.02;;;;;;;;;;5982997;23;20015;-81
2022/12/16 00:41:16;;;;;;;34.60;15.80;;;;;;;;;;5983151;23;20019;-82
2022/12/16 00:43:41;;;;;;;38.38;17.75;;;;;;;;;;5984399;23;20333;-81
2022/12/16 00:46:07;;;;;;;32.72;15.18;;;;;;;;;;6006969;23;20033;-82
2022/12/16 00:48:32;;;;;;;34.20;18.27;;;;;;;;;;5983485;23;20019;-81
2022/12/16 00:50:58;;;;;;;34.17;15.50;;;;;;;;;;5983090;23;20043;-81
2022/12/16 00:53:24;;;;;;;40.65;17.00;;;;;;;;;;5984584;23;20019;-81
2022/12/16 00:55:49;;;;;;;37.63;17.55;;;;;;;;;;5982942;23;20015;-82
2022/12/16 00:58:15;;;;;;;36.95;16.77;;;;;;;;;;5984394;23;20099;-82
2022/12/16 01:00:44;;;;;;;32.80;16.70;;;;;;;;;;5983474;23;20011;-81
2022/12/16 01:03:09;;;;;;;38.63;17.40;;;;;;;;;;5985166;23;20015;-81
2022/12/16 01:05:37;;;;;;;38.42;17.25;;;;;;;;;;5982789;23;20022;-81
2022/12/16 01:08:05;;;;;;;36.08;16.77;;;;;;;;;;5983966;23;20341;-81
2022/12/16 01:10:31;;;;;;;36.63;16.73;;;;;;;;;;5982972;23;20018;-82
2022/12/16 01:12:56;;;;;;;36.05;16.60;;;;;;;;;;5983899;23;20019;-82
2022/12/16 01:15:22;;;;;;;38.88;17.35;;;;;;;;;;5983618;23;20110;-82
2022/12/16 01:17:48;;;;;;;35.92;16.00;;;;;;;;;;5983010;23;20322;-82
2022/12/16 01:20:13;;;;;;;34.33;15.77;;;;;;;;;;5983334;23;20015;-82
2022/12/16 01:22:39;;;;;;;30.98;16.38;;;;;;;;;;5984740;23;20015;-82
2022/12/16 01:25:05;;;;;;;33.92;15.73;;;;;;;;;;5983176;23;20019;-83
2022/12/16 01:27:30;;;;;;;38.72;16.98;;;;;;;;;;6006955;23;20389;-82
2022/12/16 01:29:56;;;;;;;35.47;16.70;;;;;;;;;;5983969;23;20026;-82
2022/12/16 01:32:22;;;;;;;33.47;16.25;;;;;;;;;;6006161;23;20371;-82
2022/12/16 01:34:51;;;;;;;35.47;16.33;;;;;;;;;;5984380;23;20082;-81
2022/12/16 01:37:16;;;;;;;32.78;15.18;;;;;;;;;;6006870;23;20432;-82
2022/12/16 01:39:42;;;;;;;33.00;15.40;;;;;;;;;;6008249;23;20012;-82
2022/12/16 01:42:19;;;;;;;32.53;15.77;;;;;;;;;;5983134;23;20732;-82
2022/12/16 01:44:47;;;;;;;36.33;16.73;;;;;;;;;;6007315;23;20030;-83
2022/12/16 01:47:23;;;;;;;34.00;15.95;;;;;;;;;;5982969;23;20389;-83
2022/12/16 01:49:54;;;;;;;32.57;15.03;;;;;;;;;;5983746;23;20035;-82
2022/12/16 01:52:23;;;;;;;32.28;16.33;;;;;;;;;;6030050;23;20688;-81
2022/12/16 01:54:59;;;;;;;33.15;15.18;;;;;;;;;;5983356;23;20835;-81
2022/12/16 01:57:39;;;;;;;34.38;16.17;;;;;;;;;;5982938;23;20039;-81
2022/12/16 02:00:06;;;;;;;29.35;14.43;;;;;;;;;;5983460;23;20479;-82
2022/12/16 02:05:19;;;;;;;35.42;16.25;;;;;;;;;;6054156;23;20490;-79
2022/12/16 02:07:53;;;;;;;35.33;15.55;;;;;;;;;;6042471;23;20017;-80
2022/12/16 02:10:20;;;;;;;33.55;16.33;;;;;;;;;;6062941;23;20018;-79
2022/12/16 02:12:55;;;;;;;33.22;15.32;;;;;;;;;;6040079;23;20018;-80
2022/12/16 02:15:21;;;;;;;36.10;16.00;;;;;;;;;;6039359;23;20419;-79
2022/12/16 02:17:54;;;;;;;33.45;16.27;;;;;;;;;;6063765;23;20046;-79
2022/12/16 02:20:50;;;;;;;36.03;16.13;;;;;;;;;;6039194;23;20010;-78
2022/12/16 02:23:27;;;;;;;31.02;14.82;;;;;;;;;;6039611;23;20018;-79
2022/12/16 02:26:21;;;;;;;36.28;15.75;;;;;;;;;;6063431;23;20048;-80
2022/12/16 02:28:59;;;;;;;36.00;15.27;;;;;;;;;;6039453;23;20033;-80
2022/12/16 02:31:38;;;;;;;33.90;14.88;;;;;;;;;;6063443;23;20029;-79
2022/12/16 02:34:09;;;;;;;31.65;14.68;;;;;;;;;;6040017;23;20161;-79
2022/12/16 02:36:52;;;;;;;32.22;14.80;;;;;;;;;;6062611;23;20022;-79
2022/12/16 02:39:33;;;;;;;34.70;15.82;;;;;;;;;;6039251;23;20082;-79
2022/12/16 02:41:58;;;;;;;30.45;15.05;;;;;;;;;;6038495;23;20475;-80
2022/12/16 02:44:34;;;;;;;36.58;16.63;;;;;;;;;;6063370;23;20014;-81
2022/12/16 02:46:59;;;;;;;31.65;14.63;;;;;;;;;;6062470;23;20450;-80
2022/12/16 02:49:25;;;;;;;29.17;14.55;;;;;;;;;;6063260;23;20018;-80
2022/12/16 02:51:50;;;;;;;34.35;15.73;;;;;;;;;;6062031;23;20133;-80
2022/12/16 02:54:19;;;;;;;35.42;15.85;;;;;;;;;;6039489;23;20026;-80
2022/12/16 02:57:02;;;;;;;32.33;14.98;;;;;;;;;;6038847;23;20015;-81
2022/12/16 02:59:42;;;;;;;32.65;14.27;;;;;;;;;;6062812;23;20014;-80
2022/12/16 03:02:25;;;;;;;28.33;14.00;;;;;;;;;;6038508;23;20022;-80
2022/12/16 03:04:55;;;;;;;29.52;13.73;;;;;;;;;;6080596;23;20025;-81
2022/12/16 03:07:23;;;;;;;30.63;14.07;;;;;;;;;;6067128;23;20390;-80
2022/12/16 03:09:49;;;;;;;28.38;14.07;;;;;;;;;;6092630;23;20021;-80
2022/12/16 03:12:17;;;;;;;27.85;13.70;;;;;;;;;;6067113;23;20454;-81
2022/12/16 03:14:43;;;;;;;;;;;;;;;;;;6069829;23;20088;-80
2022/12/16 03:17:08;;;;;;;30.88;13.68;;;;;;;;;;6091233;23;19995;-80
2022/12/16 03:19:38;;;;;;;28.30;13.32;;;;;;;;;;6068621;23;20022;-79
2022/12/16 03:22:16;;;;;;;28.75;13.13;;;;;;;;;;6067248;23;20153;-80
2022/12/16 03:24:42;;;;;;;32.55;14.25;;;;;;;;;;6068614;23;20017;-81
2022/12/16 03:27:49;;;;;;;34.40;14.95;;;;;;;;;;6066863;23;20010;-80
2022/12/16 03:30:35;;;;;;;34.67;14.18;;;;;;;;;;6003798;23;20463;-80
2022/12/16 03:33:19;;;;;;;32.88;14.40;;;;;;;;;;6005009;23;20097;-81
2022/12/16 03:35:59;;;;;;;30.05;13.88;;;;;;;;;;6003447;23;20042;-81
2022/12/16 03:38:25;;;;;;;31.63;13.50;;;;;;;;;;5982177;23;20383;-80
2022/12/16 03:40:51;;;;;;;28.27;13.82;;;;;;;;;;6003460;23;20451;-80
2022/12/16 03:43:16;;;;;;;33.72;14.93;;;;;;;;;;6004579;23;20023;-80
2022/12/16 03:45:44;;;;;;;31.73;13.70;;;;;;;;;;5980707;23;20086;-81
2022/12/16 03:48:11;;;;;;;33.95;15.85;;;;;;;;;;5980736;23;20019;-80
2022/12/16 03:50:37;;;;;;;34.72;15.25;;;;;;;;;;5980036;23;20023;-80
2022/12/16 03:53:04;;;;;;;29.60;14.52;;;;;;;;;;6003443;23;20102;-79
2022/12/16 03:55:29;;;;;;;33.90;15.63;;;;;;;;;;5956415;23;20381;-80
2022/12/16 03:57:56;;;;;;;35.22;14.88;;;;;;;;;;6004019;23;20023;-78
2022/12/16 04:00:21;;;;;;;30.02;14.32;;;;;;;;;;6025881;23;20319;-79
2022/12/16 04:02:47;;;;;;;30.52;14.25;;;;;;;;;;6076224;23;20048;-79
2022/12/16 04:05:12;;;;;;;30.90;13.60;;;;;;;;;;6012836;23;20046;-81
2022/12/16 04:07:38;;;;;;;29.45;14.23;;;;;;;;;;6085086;23;20018;-80
2022/12/16 04:10:04;;;;;;;30.40;15.05;;;;;;;;;;6067909;23;20028;-81
2022/12/16 04:27:23;;;;;;;29.20;15.00;;;;;;;;;;6096252;23;20098;-79
2022/12/16 04:29:16;;;;;;;28.92;14.20;;;;;;;;;;6097751;23;20398;-80
2022/12/16 04:31:42;;;;;;;28.15;13.55;;;;;;;;;;6093566;23;20041;-80
2022/12/16 04:34:25;;;;;;;32.17;14.20;;;;;;;;;;6069902;23;20041;-79
